Time;durP1;ratioP1;P1;durP2;ratioP2;P2;SDS_P1;SDS_P2;PMS_P1;PMS_P2;Temp;Humidity;BMP_temperature;BMP_pressure;BME280_temperature;BME280_humidity;BME280_pressure;Samples;Min_cycle;Max_cycle;Signal;HPM_P1;HPM_P2
2022/01/20 00:04:14;;;;;;;226.27;200.90;;;;;;;-2.40;74.89;95545.09;5056146;28;20635;-88
2022/01/20 00:07:20;;;;;;;245.43;220.23;;;;;;;-2.57;73.67;95512.06;5054449;28;20193;-89
2022/01/20 00:09:45;;;;;;;138.00;115.70;;;;;;;-2.34;74.04;95556.75;5056806;28;20186;-89
2022/01/20 00:25:46;;;;;;;244.07;220.90;;;;;;;-2.50;73.63;95528.69;5054300;28;20162;-88
2022/01/20 00:26:19;;;;;;;204.33;183.07;;;;;;;-2.45;73.76;95518.88;5055407;28;20195;-88
2022/01/20 00:28:49;;;;;;;296.20;270.33;;;;;;;-2.21;74.14;95544.56;5054682;28;20216;-88
2022/01/20 00:33:49;;;;;;;315.93;288.40;;;;;;;-2.57;73.41;95493.19;5055835;28;20191;-87
2022/01/20 00:39:18;;;;;;;240.53;218.47;;;;;;;-2.28;73.47;95535.66;5034063;28;20171;-88
2022/01/20 00:41:44;;;;;;;239.43;217.43;;;;;;;-2.50;73.93;95502.91;5016905;28;20190;-87
2022/01/20 00:44:09;;;;;;;206.67;187.90;;;;;;;-2.59;74.13;95505.41;5042496;28;20618;-88
2022/01/20 00:46:35;;;;;;;173.10;156.70;;;;;;;-3.00;73.97;95446.66;5055450;28;20185;-87
2022/01/20 00:49:00;;;;;;;129.60;111.57;;;;;;;-2.56;74.54;95512.88;5053813;28;20182;-87
2022/01/20 00:51:26;;;;;;;155.23;130.37;;;;;;;-2.91;74.39;95459.66;5054970;28;20175;-87
2022/01/20 00:53:51;;;;;;;123.90;109.00;;;;;;;-2.72;74.82;95498.56;5059480;28;20208;-87
2022/01/20 00:56:17;;;;;;;117.47;99.80;;;;;;;-2.88;74.84;95469.75;5061062;28;20218;-88
2022/01/20 00:58:42;;;;;;;134.13;113.70;;;;;;;-2.94;74.80;95457.28;5057169;28;20178;-88
2022/01/20 01:01:08;;;;;;;135.57;103.10;;;;;;;-2.95;74.79;95457.44;5055837;28;20174;-88
2022/01/20 01:03:34;;;;;;;162.53;121.40;;;;;;;-2.42;74.95;95534.09;5053800;28;20171;-89
2022/01/20 01:08:43;;;;;;;172.60;123.53;;;;;;;-2.71;74.13;95495.06;5054981;28;20234;-89
2022/01/20 01:11:09;;;;;;;156.97;128.93;;;;;;;-2.92;74.68;95457.19;5053667;28;20187;-89
2022/01/20 01:13:35;;;;;;;161.93;126.70;;;;;;;-2.83;74.25;95477.94;5054905;28;20680;-89
2022/01/20 01:16:01;;;;;;;161.10;131.97;;;;;;;-2.78;74.01;95478.44;5053795;28;20644;-88
2022/01/20 01:21:16;;;;;;;167.53;141.30;;;;;;;-3.01;74.28;95440.66;5055363;28;20595;-89
2022/01/20 01:23:44;;;;;;;150.03;101.93;;;;;;;-2.53;74.59;95517.81;5054005;28;20179;-89
2022/01/20 01:26:15;;;;;;;137.40;99.93;;;;;;;-2.62;74.88;95503.03;5054273;28;20183;-90
2022/01/20 01:28:42;;;;;;;148.27;100.57;;;;;;;-2.69;74.71;95489.81;5048275;28;20242;-90
2022/01/20 01:33:36;;;;;;;144.83;101.57;;;;;;;-3.01;74.38;95426.97;5049964;28;20283;-89
2022/01/20 01:36:04;;;;;;;147.97;102.17;;;;;;;-2.48;74.31;95508.78;5056639;28;20244;-89
2022/01/20 01:38:36;;;;;;;130.73;95.07;;;;;;;-2.77;74.42;95489.56;5053451;28;20649;-89
2022/01/20 01:41:09;;;;;;;124.67;72.30;;;;;;;-3.28;75.09;95402.34;5053473;28;20167;-89
2022/01/20 01:43:37;;;;;;;117.20;60.43;;;;;;;-3.20;74.58;95404.38;5053467;28;20179;-89
2022/01/20 01:46:03;;;;;;;99.17;58.53;;;;;;;-3.02;75.00;95444.19;5053166;28;20221;-89
2022/01/20 01:48:28;;;;;;;117.00;64.40;;;;;;;-3.12;74.25;95431.19;5053039;28;20179;-88
2022/01/20 01:50:55;;;;;;;110.37;64.20;;;;;;;-2.66;74.20;95489.56;5053070;28;20175;-89
2022/01/20 01:53:21;;;;;;;102.97;53.27;;;;;;;-2.76;74.70;95484.25;5053111;28;20302;-88
2022/01/20 01:55:47;;;;;;;121.43;51.70;;;;;;;-3.31;74.57;95392.31;5053017;28;20183;-89
2022/01/20 01:58:12;;;;;;;107.27;59.17;;;;;;;-3.07;74.25;95425.69;5052112;28;20573;-88
2022/01/20 02:00:40;;;;;;;101.93;63.33;;;;;;;-3.08;73.78;95418.91;5052405;28;20285;-88
2022/01/20 02:03:06;;;;;;;107.37;63.30;;;;;;;-3.20;74.17;95404.38;5052828;28;20167;-87
2022/01/20 02:05:33;;;;;;;108.73;65.13;;;;;;;-2.78;74.20;95473.28;5052235;28;20170;-88
2022/01/20 02:18:51;;;;;;;90.80;44.17;;;;;;;-2.86;74.42;95455.00;5053620;28;20170;-89
2022/01/20 02:21:17;;;;;;;83.70;44.50;;;;;;;-3.00;74.24;95434.59;5060265;28;20659;-88
2022/01/20 02:23:47;;;;;;;95.50;48.53;;;;;;;-3.08;74.65;95419.72;5057545;28;20298;-88
2022/01/20 02:26:12;;;;;;;100.43;46.70;;;;;;;-2.84;74.37;95454.88;5064126;28;20547;-88
2022/01/20 02:28:38;;;;;;;90.43;44.07;;;;;;;-3.08;74.65;95416.31;5055103;28;20198;-89
2022/01/20 02:31:04;;;;;;;83.73;44.77;;;;;;;-3.23;74.93;95400.28;5058308;28;20221;-87
2022/01/20 02:33:31;;;;;;;85.63;40.67;;;;;;;-3.04;74.83;95433.19;5057155;28;20198;-88
2022/01/20 02:36:01;;;;;;;85.67;40.40;;;;;;;-2.98;74.77;95448.19;5061046;28;21083;-88
2022/01/20 02:38:38;;;;;;;77.47;40.03;;;;;;;-3.13;75.23;95421.81;5058922;28;20197;-88
2022/01/20 02:46:34;;;;;;;77.40;40.37;;;;;;;-3.23;75.16;95404.59;5054277;28;20166;-89
2022/01/20 02:48:59;;;;;;;92.60;41.43;;;;;;;-3.28;75.38;95386.91;5053659;28;20558;-89
2022/01/20 02:51:25;;;;;;;92.83;50.10;;;;;;;-3.38;75.73;95388.53;5052313;28;20159;-88
2022/01/20 02:53:52;;;;;;;99.30;67.87;;;;;;;-3.14;75.96;95414.22;5052468;28;20692;-88
2022/01/20 02:56:18;;;;;;;86.93;52.97;;;;;;;-3.06;75.48;95432.47;5053273;28;20604;-88
2022/01/20 02:58:43;;;;;;;91.97;66.87;;;;;;;-3.28;75.56;95404.09;5053155;28;20178;-89
2022/01/20 03:01:09;;;;;;;146.90;128.37;;;;;;;-3.38;76.27;95377.44;5052398;28;20183;-89
2022/01/20 03:03:35;;;;;;;250.17;231.37;;;;;;;-3.45;76.79;95370.16;5051028;28;20194;-88
2022/01/20 03:06:02;;;;;;;488.33;444.07;;;;;;;-3.03;76.16;95433.06;5051175;28;20258;-89
2022/01/20 03:08:28;;;;;;;711.00;654.10;;;;;;;-3.16;75.92;95403.19;5052543;28;20227;-89
2022/01/20 03:10:53;;;;;;;719.87;658.60;;;;;;;-3.48;74.93;95346.41;5052501;28;20240;-88
2022/01/20 03:13:19;;;;;;;612.67;567.20;;;;;;;-3.28;75.22;95376.63;5057928;28;20199;-89
2022/01/20 03:15:45;;;;;;;594.63;547.47;;;;;;;-3.18;75.56;95403.31;5064294;28;20657;-89
2022/01/20 03:18:10;;;;;;;650.33;599.63;;;;;;;-3.02;75.91;95431.31;5060495;28;20178;-89
2022/01/20 03:20:36;;;;;;;573.93;532.33;;;;;;;-3.53;75.66;95344.16;5054678;28;20270;-88
2022/01/20 03:23:02;;;;;;;647.93;597.30;;;;;;;-3.02;75.41;95418.44;5052107;28;20643;-89
2022/01/20 03:25:29;;;;;;;661.83;610.97;;;;;;;-3.14;75.12;95409.06;5054930;28;20181;-88
2022/01/20 03:27:55;;;;;;;657.87;605.43;;;;;;;-3.03;75.14;95418.56;5061790;28;20637;-89
2022/01/20 03:30:21;;;;;;;657.87;609.87;;;;;;;-3.27;75.19;95382.59;5060895;28;20743;-88
2022/01/20 03:32:47;;;;;;;627.40;584.07;;;;;;;-3.10;75.72;95415.59;5057848;28;20186;-89
2022/01/20 03:35:13;;;;;;;576.60;535.80;;;;;;;-3.10;75.89;95407.88;5061205;28;20568;-89
2022/01/20 03:37:39;;;;;;;605.43;559.73;;;;;;;-3.09;75.17;95410.34;5071266;28;20166;-88
2022/01/20 03:40:06;;;;;;;657.37;605.50;;;;;;;-3.27;75.77;95385.97;5075041;28;20182;-88
2022/01/20 03:42:32;;;;;;;601.10;557.30;;;;;;;-3.22;75.91;95389.03;5074891;28;20174;-88
2022/01/20 03:44:58;;;;;;;631.47;587.87;;;;;;;-3.14;76.06;95407.31;5075595;28;20545;-89
2022/01/20 03:47:25;;;;;;;643.17;596.73;;;;;;;-3.85;75.52;95295.13;5076312;28;20186;-88
2022/01/20 03:52:18;;;;;;;625.53;581.30;;;;;;;-3.10;75.03;95402.75;5075726;28;20651;-88
2022/01/20 03:54:43;;;;;;;677.80;625.40;;;;;;;-3.47;75.01;95335.19;5074715;28;20281;-88
2022/01/20 03:57:09;;;;;;;676.37;622.80;;;;;;;-3.31;74.63;95360.59;5076322;28;20214;-89
2022/01/20 03:59:34;;;;;;;677.83;628.53;;;;;;;-3.52;74.82;95330.38;5075025;28;20280;-89
2022/01/20 04:02:00;;;;;;;586.57;544.87;;;;;;;-3.51;74.26;95338.91;5076099;28;20612;-87
2022/01/20 04:04:25;;;;;;;562.13;520.10;;;;;;;-3.51;74.37;95347.44;5074685;28;20331;-87
2022/01/20 04:06:51;;;;;;;505.23;468.27;;;;;;;-3.40;74.26;95356.97;5074607;28;20250;-88
2022/01/20 04:09:16;;;;;;;531.70;494.43;;;;;;;-3.18;74.21;95394.78;5066225;28;20260;-88
2022/01/20 04:11:42;;;;;;;457.43;424.33;;;;;;;-3.46;74.39;95354.84;5057096;28;20235;-88
2022/01/20 04:14:09;;;;;;;471.73;438.50;;;;;;;-3.22;74.27;95401.09;5060131;28;20198;-88
2022/01/20 04:16:51;;;;;;;455.27;423.53;;;;;;;-3.28;74.70;95386.09;5063442;28;20170;-89
2022/01/20 04:19:16;;;;;;;438.07;408.87;;;;;;;-3.46;74.89;95360.78;5076546;28;20165;-88
2022/01/20 04:21:42;;;;;;;491.13;457.03;;;;;;;-3.54;74.62;95359.72;5076075;28;20159;-88
2022/01/20 04:24:08;;;;;;;531.23;493.17;;;;;;;-3.33;75.14;95393.34;5065990;28;20274;-89
2022/01/20 04:26:35;;;;;;;468.43;435.33;;;;;;;-3.73;75.17;95326.84;5066267;28;20226;-86
2022/01/20 04:29:03;;;;;;;543.53;506.00;;;;;;;-3.30;74.96;95387.97;5065514;28;20230;-88
2022/01/20 04:31:30;;;;;;;578.40;536.10;;;;;;;-3.25;74.75;95391.84;5061242;28;20221;-89
2022/01/20 04:33:57;;;;;;;598.43;554.63;;;;;;;-3.20;74.66;95388.94;5054488;28;20195;-88
2022/01/20 04:36:24;;;;;;;572.53;531.90;;;;;;;-3.43;74.28;95355.41;5054292;28;20571;-88
2022/01/20 04:38:49;;;;;;;506.17;470.80;;;;;;;-3.57;74.45;95339.38;5053929;28;20254;-89
2022/01/20 04:41:15;;;;;;;565.03;526.87;;;;;;;-3.40;74.41;95366.44;5054211;28;20206;-86
2022/01/20 04:43:41;;;;;;;569.87;531.00;;;;;;;-3.37;74.23;95373.94;5055094;28;20202;-88
2022/01/20 04:46:17;;;;;;;510.23;473.87;;;;;;;-3.27;74.72;95390.31;5064082;28;20210;-89
2022/01/20 04:59:31;;;;;;;410.87;382.00;;;;;;;-3.31;75.57;95381.19;5064210;28;20682;-88
2022/01/20 05:01:57;;;;;;;440.40;409.13;;;;;;;-3.44;74.97;95361.50;5061989;28;20216;-86
2022/01/20 05:04:24;;;;;;;453.53;420.90;;;;;;;-3.43;75.72;95364.88;5072885;28;20654;-88
2022/01/20 05:06:53;;;;;;;406.70;378.27;;;;;;;-3.25;75.03;95380.72;5073290;28;20230;-88
2022/01/20 05:09:20;;;;;;;505.10;468.57;;;;;;;-3.21;75.00;95388.13;5073897;28;20231;-86
2022/01/20 05:11:51;;;;;;;537.03;496.37;;;;;;;-3.34;74.37;95374.50;5074405;28;20170;-88
2022/01/20 05:14:17;;;;;;;505.30;468.77;;;;;;;-3.70;74.88;95318.06;5073459;28;20217;-87
2022/01/20 05:16:42;;;;;;;457.70;424.37;;;;;;;-3.66;74.65;95324.63;5074545;28;20184;-88
2022/01/20 05:19:08;;;;;;;580.60;540.50;;;;;;;-3.83;74.92;95298.41;5072984;28;20253;-88
2022/01/20 05:21:33;;;;;;;457.87;426.63;;;;;;;-3.33;75.30;95380.47;5063615;28;20170;-88
2022/01/20 05:23:59;;;;;;;570.63;533.10;;;;;;;-3.66;74.99;95335.72;5059819;28;20171;-88
2022/01/20 05:26:24;;;;;;;613.40;569.47;;;;;;;-3.75;74.88;95331.25;5052884;28;20170;-88
2022/01/20 05:28:50;;;;;;;547.40;509.23;;;;;;;-4.02;74.97;95289.56;5064014;28;20175;-90
2022/01/20 05:31:15;;;;;;;526.67;489.33;;;;;;;-3.39;75.11;95392.06;5073832;28;20239;-90
2022/01/20 05:33:41;;;;;;;481.70;446.77;;;;;;;-3.77;74.92;95319.44;5073503;28;20189;-88
2022/01/20 05:36:06;;;;;;;510.87;475.83;;;;;;;-3.59;74.93;95351.53;5060444;28;20649;-85
2022/01/20 05:38:32;;;;;;;562.20;521.03;;;;;;;-3.87;74.97;95317.53;5055537;28;20336;-87
2022/01/20 05:40:57;;;;;;;452.90;412.30;;;;;;;-3.77;74.95;95320.25;5060378;28;20765;-88
2022/01/20 05:43:23;;;;;;;551.20;500.33;;;;;;;-3.71;75.58;95330.09;5065089;28;21611;-89
2022/01/20 05:45:49;;;;;;;587.20;532.50;;;;;;;-3.74;75.01;95320.03;5057802;28;20210;-88
2022/01/20 05:48:17;;;;;;;1999.90;999.90;;;;;;;-3.50;74.73;95359.38;5060986;28;20495;-87
2022/01/20 05:50:43;;;;;;;1292.83;829.07;;;;;;;-3.69;74.59;95329.97;5059223;28;20187;-86
2022/01/20 05:53:10;;;;;;;1999.90;999.90;;;;;;;-3.56;74.54;95333.31;5058263;28;20419;-87
2022/01/20 05:55:37;;;;;;;604.83;537.57;;;;;;;-3.26;73.90;95392.78;5059039;28;20171;-86
2022/01/20 05:58:05;;;;;;;1999.90;999.90;;;;;;;-3.69;73.85;95319.69;5064132;28;20186;-88
2022/01/20 06:00:32;;;;;;;1141.07;758.77;;;;;;;-3.63;74.08;95316.69;5062517;28;20257;-86
2022/01/20 06:05:41;;;;;;;650.37;596.20;;;;;;;-3.52;73.25;95316.69;5061547;28;20240;-88
2022/01/20 06:08:08;;;;;;;645.97;593.00;;;;;;;-3.07;73.35;95384.50;5059759;28;20230;-88
2022/01/20 06:10:34;;;;;;;582.03;531.10;;;;;;;-3.36;72.67;95331.78;5060240;28;20217;-87
2022/01/20 06:13:00;;;;;;;544.97;502.33;;;;;;;-2.92;72.89;95388.50;5057354;28;20218;-88
2022/01/20 06:15:26;;;;;;;501.43;458.77;;;;;;;-3.18;72.20;95343.28;5064063;28;20170;-89
2022/01/20 06:17:51;;;;;;;542.73;494.33;;;;;;;-3.22;72.84;95345.28;5058468;28;20243;-88
2022/01/20 06:20:17;;;;;;;604.90;554.10;;;;;;;-3.38;72.07;95320.81;5052629;28;20187;-86
2022/01/20 06:22:42;;;;;;;621.73;569.37;;;;;;;-3.49;72.68;95311.31;5054863;28;20197;-86
2022/01/20 06:25:08;;;;;;;582.23;532.87;;;;;;;-3.43;72.85;95308.28;5055758;28;20215;-87
2022/01/20 06:27:34;;;;;;;612.73;561.10;;;;;;;-2.81;72.81;95400.56;5058426;28;20210;-88
2022/01/20 06:30:01;;;;;;;726.87;667.47;;;;;;;-2.76;72.88;95399.25;5061031;28;20779;-88
2022/01/20 06:32:27;;;;;;;657.77;603.57;;;;;;;-2.99;72.42;95353.84;5061351;28;20651;-89
2022/01/20 06:34:52;;;;;;;701.03;645.90;;;;;;;-3.05;72.68;95364.63;5058773;28;20202;-89
2022/01/20 06:37:18;;;;;;;688.40;625.87;;;;;;;-3.19;73.41;95329.59;5064923;28;20640;-89
2022/01/20 06:39:43;;;;;;;1156.53;774.33;;;;;;;-2.74;72.84;95329.59;5055146;28;20179;-90
2022/01/20 06:42:09;;;;;;;1178.00;746.43;;;;;;;-1.98;71.77;95365.66;5058018;28;20567;-88
2022/01/20 06:44:34;;;;;;;1649.03;898.80;;;;;;;-0.98;69.29;95405.69;5061378;28;20178;-85
2022/01/20 06:47:00;;;;;;;992.53;912.87;;;;;;;-0.43;64.42;95357.91;5055226;28;20562;-85
2022/01/20 06:49:25;;;;;;;827.30;738.73;;;;;;;0.18;62.56;95336.22;5055929;28;20208;-87
2022/01/20 06:51:51;;;;;;;131.90;70.03;;;;;;;0.84;59.14;95357.88;5060382;28;20200;-89
2022/01/20 06:54:17;;;;;;;1379.43;776.50;;;;;;;1.06;57.51;95328.22;5058981;28;20704;-90
2022/01/20 06:56:42;;;;;;;113.63;64.10;;;;;;;1.66;55.97;95368.38;5052839;28;20179;-88
2022/01/20 06:59:13;;;;;;;90.10;43.40;;;;;;;2.15;55.38;95397.50;5056586;28;20654;-89
2022/01/20 07:01:40;;;;;;;92.47;41.33;;;;;;;2.30;54.34;95374.44;5060000;28;20174;-88
2022/01/20 07:04:05;;;;;;;72.03;35.17;;;;;;;2.33;52.86;95362.00;5064546;28;20638;-88
2022/01/20 07:06:31;;;;;;;78.60;37.23;;;;;;;2.56;53.04;95341.56;5058310;28;20211;-89
2022/01/20 07:08:57;;;;;;;59.30;28.63;;;;;;;3.70;50.94;95356.13;5059787;28;20614;-90
2022/01/20 07:11:23;;;;;;;54.53;27.43;;;;;;;4.88;47.41;95355.88;5060430;28;20535;-90
2022/01/20 07:13:48;;;;;;;70.27;34.73;;;;;;;5.84;44.79;95353.25;5058330;28;20198;-89
2022/01/20 07:16:14;;;;;;;59.30;26.03;;;;;;;6.51;42.65;95358.81;5064485;28;20175;-90
2022/01/20 07:18:39;;;;;;;46.87;21.67;;;;;;;6.96;41.15;95371.91;5064299;28;20174;-90
2022/01/20 07:21:05;;;;;;;33.53;16.93;;;;;;;7.65;39.32;95354.22;5060482;28;20179;-91
2022/01/20 07:23:30;;;;;;;46.70;21.83;;;;;;;8.52;37.38;95318.41;5057534;28;20177;-91
2022/01/20 07:25:56;;;;;;;42.00;22.23;;;;;;;9.94;35.46;95354.09;5061466;28;20659;-91
2022/01/20 07:28:21;;;;;;;56.50;27.07;;;;;;;11.52;33.60;95394.00;5058715;28;20266;-91
2022/01/20 07:30:47;;;;;;;40.53;19.87;;;;;;;12.46;30.81;95332.91;5062309;28;20190;-89
2022/01/20 07:33:12;;;;;;;38.47;17.33;;;;;;;13.78;28.71;95339.94;5057886;28;20214;-89
2022/01/20 07:35:38;;;;;;;24.53;12.97;;;;;;;15.07;26.46;95385.50;5063702;28;20171;-88
2022/01/20 07:38:05;;;;;;;30.13;14.07;;;;;;;15.61;26.03;95381.06;5062894;28;20276;-90
2022/01/20 07:40:32;;;;;;;28.80;13.53;;;;;;;15.83;24.67;95344.94;5055218;28;20167;-89
2022/01/20 07:42:58;;;;;;;25.27;12.37;;;;;;;15.00;25.64;95368.91;5057823;28;20175;-88
2022/01/20 07:45:24;;;;;;;29.50;13.30;;;;;;;15.60;25.15;95301.66;5062597;28;20166;-91
2022/01/20 07:47:49;;;;;;;27.17;11.50;;;;;;;16.10;24.01;95321.38;5090706;28;20210;-88
2022/01/20 07:50:15;;;;;;;19.88;11.48;;;;;;;16.49;23.48;95256.00;5057125;28;20171;-90
2022/01/20 07:52:40;;;;;;;25.73;12.65;;;;;;;17.50;22.88;95343.97;5061428;28;20179;-88
2022/01/20 07:55:06;;;;;;;25.60;11.88;;;;;;;18.46;21.84;95332.06;5062226;28;20187;-89
2022/01/20 07:57:32;;;;;;;20.45;11.82;;;;;;;19.17;21.04;95355.06;5057875;28;20171;-88
2022/01/20 07:59:57;;;;;;;26.73;11.88;;;;;;;20.32;20.29;95363.47;5061613;28;20170;-91
2022/01/20 08:02:23;;;;;;;24.83;12.70;;;;;;;20.50;19.55;95324.78;5059246;28;20249;-91
2022/01/20 08:04:48;;;;;;;23.75;11.20;;;;;;;20.18;19.43;95306.16;5060808;28;20526;-91
2022/01/20 08:07:14;;;;;;;21.30;11.73;;;;;;;19.98;19.41;95374.47;5059234;28;20219;-92
2022/01/20 08:09:39;;;;;;;30.45;11.25;;;;;;;19.02;20.41;95312.22;5061013;28;20199;-90
2022/01/20 08:12:06;;;;;;;25.77;11.25;;;;;;;18.38;20.62;95362.63;5060270;28;20265;-90
2022/01/20 08:14:31;;;;;;;27.85;12.02;;;;;;;17.26;21.37;95324.69;5064281;28;20194;-89
2022/01/20 08:16:57;;;;;;;29.17;13.32;;;;;;;16.32;22.95;95334.88;5065553;28;20173;-89
2022/01/20 08:19:22;;;;;;;21.50;12.90;;;;;;;15.39;23.81;95316.31;5070839;28;20265;-85
2022/01/20 08:21:48;;;;;;;23.53;11.40;;;;;;;14.08;25.16;95305.66;5063705;28;20168;-89
2022/01/20 08:24:13;;;;;;;23.80;11.17;;;;;;;13.58;26.47;95335.63;5068979;28;20175;-90
2022/01/20 08:26:39;;;;;;;26.57;13.20;;;;;;;13.05;27.74;95313.28;5065934;28;20262;-89
2022/01/20 08:29:05;;;;;;;22.93;13.70;;;;;;;12.91;27.96;95335.53;5067741;28;20556;-87
2022/01/20 08:31:31;;;;;;;34.83;14.17;;;;;;;12.16;27.76;95300.97;5064142;28;20647;-89
2022/01/20 08:33:56;;;;;;;22.03;12.93;;;;;;;11.47;29.25;95279.66;5058635;28;20187;-87
2022/01/20 08:36:22;;;;;;;36.60;14.10;;;;;;;11.40;29.59;95332.38;5062749;28;20167;-89
2022/01/20 08:38:48;;;;;;;29.63;13.33;;;;;;;10.53;31.21;95293.00;5061965;28;20273;-88
2022/01/20 08:41:13;;;;;;;30.43;12.30;;;;;;;9.83;31.54;95318.63;5063067;28;20178;-91
2022/01/20 08:43:39;;;;;;;28.10;13.10;;;;;;;9.57;33.18;95296.63;5066254;28;20257;-89
2022/01/20 08:46:07;;;;;;;28.73;13.70;;;;;;;9.54;32.28;95315.41;5066657;28;20269;-91
2022/01/20 08:48:34;;;;;;;36.73;14.03;;;;;;;9.56;33.93;95271.34;5059786;28;20637;-91
2022/01/20 08:50:59;;;;;;;27.50;12.67;;;;;;;9.80;32.82;95302.41;5056909;28;20171;-92
2022/01/20 08:53:26;;;;;;;32.23;13.27;;;;;;;9.69;33.47;95290.63;5059474;28;20187;-92
2022/01/20 08:55:51;;;;;;;35.03;15.10;;;;;;;9.77;33.14;95306.22;5065084;28;20178;-91
2022/01/20 08:58:17;;;;;;;38.50;15.90;;;;;;;9.03;34.15;95299.88;5068313;28;20233;-91
2022/01/20 09:00:43;;;;;;;31.00;16.00;;;;;;;8.91;33.68;95289.09;5074300;28;20170;-91
2022/01/20 09:03:09;;;;;;;75.07;31.60;;;;;;;8.25;36.02;95243.03;5060748;28;20163;-89
2022/01/20 09:05:35;;;;;;;41.57;17.63;;;;;;;8.68;35.56;95343.59;5061858;28;20695;-89
2022/01/20 09:08:02;;;;;;;39.40;16.57;;;;;;;8.44;35.75;95278.38;5070814;28;20218;-89
2022/01/20 09:10:36;;;;;;;38.93;19.90;;;;;;;9.20;35.46;95342.44;5065756;28;20172;-89
2022/01/20 09:15:46;;;;;;;43.53;19.33;;;;;;;9.06;36.33;95283.75;5055467;28;20613;-89
2022/01/20 09:18:12;;;;;;;37.20;18.97;;;;;;;9.08;35.55;95293.06;5054376;28;20163;-91
2022/01/20 09:20:38;;;;;;;38.07;18.33;;;;;;;9.00;35.19;95269.56;5056781;28;20177;-91
2022/01/20 09:23:05;;;;;;;36.20;17.97;;;;;;;9.20;35.44;95261.03;5063178;28;20163;-91
2022/01/20 09:25:30;;;;;;;40.93;18.93;;;;;;;9.44;35.48;95284.22;5056329;28;20210;-91
2022/01/20 09:27:56;;;;;;;45.13;19.60;;;;;;;8.92;35.31;95237.38;5063493;28;20171;-90
2022/01/20 09:30:24;;;;;;;50.67;19.03;;;;;;;8.72;36.81;95265.31;5066691;28;20182;-91
2022/01/20 09:33:11;;;;;;;41.40;18.47;;;;;;;8.45;36.45;95209.16;5065043;28;20167;-91
2022/01/20 09:35:38;;;;;;;36.50;17.70;;;;;;;8.50;36.63;95306.47;5061137;28;20209;-90
2022/01/20 09:38:04;;;;;;;41.97;18.53;;;;;;;7.96;37.98;95301.59;5061801;28;20224;-90
2022/01/20 09:40:32;;;;;;;41.80;17.93;;;;;;;8.19;38.39;95298.88;5057074;28;20163;-87
2022/01/20 09:42:58;;;;;;;36.00;16.60;;;;;;;7.96;38.55;95234.25;5061440;28;20175;-91
2022/01/20 09:45:24;;;;;;;38.00;15.60;;;;;;;8.53;37.57;95293.81;5060279;28;20173;-87
2022/01/20 09:47:50;;;;;;;43.23;14.40;;;;;;;8.40;36.98;95235.94;5065610;28;20182;-88
2022/01/20 09:50:19;;;;;;;36.53;13.20;;;;;;;8.42;36.19;95194.59;5061005;28;20182;-88
2022/01/20 09:52:48;;;;;;;43.23;15.10;;;;;;;9.11;36.86;95251.66;5060684;28;20655;-88
2022/01/20 09:55:15;;;;;;;41.07;14.00;;;;;;;9.16;35.87;95223.84;5065318;28;20178;-88
2022/01/20 09:57:41;;;;;;;24.87;11.70;;;;;;;9.35;35.23;95202.09;5068304;28;20179;-88
2022/01/20 10:00:10;;;;;;;24.07;8.30;;;;;;;9.45;34.40;95186.81;5065879;28;20163;-88
2022/01/20 10:02:35;;;;;;;22.20;7.07;;;;;;;9.99;34.09;95245.66;5061858;28;20170;-85
2022/01/20 10:05:02;;;;;;;14.07;5.77;;;;;;;10.06;32.54;95242.03;5068817;28;20162;-90
2022/01/20 10:07:33;;;;;;;17.20;4.70;;;;;;;9.90;32.43;95186.34;5060899;28;20219;-88
2022/01/20 10:09:59;;;;;;;8.40;3.87;;;;;;;9.77;32.11;95155.59;5066125;28;20179;-92
2022/01/20 10:12:28;;;;;;;11.03;3.50;;;;;;;10.24;30.74;95231.00;5063630;28;20174;-89
2022/01/20 10:14:56;;;;;;;7.13;2.73;;;;;;;10.28;30.54;95215.63;5056072;28;20202;-89
2022/01/20 10:17:30;;;;;;;8.80;4.00;;;;;;;10.30;30.10;95209.13;5065748;28;20202;-89
2022/01/20 10:20:03;;;;;;;6.57;2.67;;;;;;;10.16;28.85;95192.50;5057911;28;20178;-88
2022/01/20 10:22:30;;;;;;;17.93;7.07;;;;;;;10.18;29.53;95174.72;5057818;28;20162;-86
2022/01/20 10:25:02;;;;;;;7.23;3.17;;;;;;;9.92;29.38;95145.72;5062969;28;20227;-87
2022/01/20 10:27:32;;;;;;;7.63;3.07;;;;;;;9.92;28.86;95126.50;5061506;28;20166;-86
2022/01/20 10:30:01;;;;;;;7.47;2.93;;;;;;;9.81;28.96;95112.94;5064582;28;20185;-87
2022/01/20 10:32:37;;;;;;;12.77;4.70;;;;;;;9.82;29.01;95113.72;5061113;28;20163;-86
2022/01/20 10:35:04;;;;;;;25.03;7.93;;;;;;;10.08;28.60;95176.09;5056772;28;20255;-88
2022/01/20 10:37:30;;;;;;;26.80;7.77;;;;;;;9.67;29.84;95129.69;5059961;28;20167;-89
2022/01/20 10:40:06;;;;;;;13.40;6.13;;;;;;;9.93;30.00;95175.47;5063262;28;20171;-89
2022/01/20 10:42:37;;;;;;;13.90;6.03;;;;;;;9.99;29.62;95166.75;5065218;28;20177;-87
2022/01/20 10:45:03;;;;;;;23.73;6.60;;;;;;;9.87;29.80;95158.63;5061159;28;20713;-87
2022/01/20 10:47:33;;;;;;;18.63;7.07;;;;;;;9.33;30.38;95074.59;5064862;28;20213;-88
2022/01/20 10:50:12;;;;;;;15.80;6.57;;;;;;;9.86;30.03;95169.38;5071181;28;20171;-87
2022/01/20 10:53:19;;;;;;;15.13;7.27;;;;;;;9.82;29.75;95153.97;5064774;28;20182;-89
2022/01/20 10:55:44;;;;;;;23.27;8.53;;;;;;;9.52;29.89;95104.53;5060037;28;20178;-86
2022/01/20 10:58:13;;;;;;;22.10;7.17;;;;;;;9.57;29.32;95102.97;5061301;28;20162;-89
2022/01/20 11:00:45;;;;;;;21.20;8.03;;;;;;;9.66;29.31;95127.25;5058722;28;20175;-87
2022/01/20 11:03:10;;;;;;;23.90;10.20;;;;;;;9.76;29.64;95138.19;5063642;28;20246;-87
2022/01/20 11:05:38;;;;;;;24.20;7.37;;;;;;;9.28;28.16;95050.72;5062964;28;20618;-88
2022/01/20 11:08:05;;;;;;;12.60;5.33;;;;;;;9.71;26.68;95114.31;5060168;28;20222;-88
2022/01/20 11:10:30;;;;;;;13.80;6.50;;;;;;;9.93;26.94;95128.94;5058958;28;20179;-87
2022/01/20 11:12:56;;;;;;;8.37;5.23;;;;;;;9.51;27.41;95082.75;5059793;28;20274;-87
2022/01/20 11:15:23;;;;;;;23.17;9.23;;;;;;;9.60;27.36;95086.78;5061989;28;20640;-89
2022/01/20 11:17:53;;;;;;;29.17;12.20;;;;;;;9.39;27.83;95052.78;5064718;28;20509;-89
2022/01/20 11:20:25;;;;;;;17.87;8.60;;;;;;;9.83;27.68;95124.06;5062031;28;20171;-88
2022/01/20 11:23:07;;;;;;;15.57;5.43;;;;;;;9.63;27.23;95101.34;5057707;28;20555;-88
2022/01/20 11:25:37;;;;;;;14.53;5.20;;;;;;;9.54;27.93;95071.81;5060750;28;20224;-88
2022/01/20 11:28:08;;;;;;;7.90;4.53;;;;;;;9.76;28.94;95119.78;5053911;28;20202;-88
2022/01/20 11:30:35;;;;;;;12.80;5.77;;;;;;;9.25;28.80;95036.19;5045535;28;20269;-88
2022/01/20 11:33:02;;;;;;;9.23;4.60;;;;;;;9.74;28.40;95113.91;5064329;28;20619;-88
2022/01/20 11:35:46;;;;;;;5.80;3.97;;;;;;;9.42;29.05;95076.03;5059969;28;20182;-88
2022/01/20 11:38:14;;;;;;;10.60;4.80;;;;;;;9.62;29.45;95105.78;5057128;28;20297;-89
2022/01/20 11:40:53;;;;;;;14.90;4.73;;;;;;;9.58;29.61;95116.91;5051547;28;20171;-88
2022/01/20 11:43:32;;;;;;;9.27;3.53;;;;;;;9.38;29.48;95075.63;5057449;28;20170;-89
2022/01/20 11:46:07;;;;;;;14.70;5.43;;;;;;;9.59;29.61;95110.66;5051796;28;20447;-88
2022/01/20 11:48:32;;;;;;;21.30;6.57;;;;;;;9.49;28.51;95099.72;5047543;28;20187;-89
2022/01/20 11:51:07;;;;;;;17.40;6.03;;;;;;;9.16;29.08;95057.56;5061077;28;20612;-89
2022/01/20 11:53:35;;;;;;;11.27;3.63;;;;;;;9.56;28.38;95111.03;5056743;28;20201;-88
2022/01/20 11:56:02;;;;;;;11.10;5.63;;;;;;;9.36;28.86;95069.75;5059357;28;20182;-88
2022/01/20 11:58:27;;;;;;;11.80;3.80;;;;;;;9.23;28.37;95068.91;5068500;28;20476;-88
2022/01/20 12:01:04;;;;;;;10.53;4.27;;;;;;;9.03;28.91;95043.38;5058318;28;20217;-87
2022/01/20 12:03:31;;;;;;;13.67;6.17;;;;;;;9.12;29.59;95056.34;5064151;28;20640;-88
2022/01/20 12:06:03;;;;;;;12.20;5.20;;;;;;;9.05;28.83;95036.13;5067123;28;20217;-88
2022/01/20 12:08:28;;;;;;;8.97;4.90;;;;;;;9.39;29.85;95087.75;5055129;28;20766;-88
2022/01/20 12:11:07;;;;;;;6.90;3.73;;;;;;;9.37;30.86;95078.44;5057733;28;20214;-88
2022/01/20 12:13:48;;;;;;;8.03;3.60;;;;;;;9.25;31.10;95069.53;5064433;28;20290;-88
2022/01/20 12:16:19;;;;;;;9.37;3.93;;;;;;;9.05;31.19;95041.38;5062656;28;20174;-89
2022/01/20 12:18:53;;;;;;;13.70;5.13;;;;;;;9.42;31.56;95095.25;5062256;28;20236;-89